Time;durP1;ratioP1;P1;durP2;ratioP2;P2;SDS_P1;SDS_P2;PMS_P1;PMS_P2;Temp;Humidity;BMP_temperature;BMP_pressure;BME280_temperature;BME280_humidity;BME280_pressure;Samples;Min_cycle;Max_cycle;Signal;HPM_P1;HPM_P2
2023/06/21 00:01:38;;;;;;;;;;;23.90;72.90;;;;;;5110072;28;20005;-67
2023/06/21 00:04:04;;;;;;;;;;;23.90;73.30;;;;;;5092742;28;19912;-67
2023/06/21 00:06:30;;;;;;;;;;;23.90;73.10;;;;;;5108887;28;19915;-67
2023/06/21 00:08:56;;;;;;;;;;;23.90;73.20;;;;;;5109459;28;19911;-67
2023/06/21 00:11:21;;;;;;;;;;;23.90;73.20;;;;;;5109884;28;19918;-67
2023/06/21 00:13:47;;;;;;;;;;;23.80;73.30;;;;;;5109689;28;20031;-67
2023/06/21 00:16:14;;;;;;;;;;;23.70;73.50;;;;;;5109473;28;19954;-66
2023/06/21 00:18:39;;;;;;;;;;;23.70;73.40;;;;;;5109496;28;19912;-67
2023/06/21 00:21:05;;;;;;;;;;;23.80;73.40;;;;;;5113660;27;19912;-67
2023/06/21 00:23:30;;;;;;;;;;;23.70;73.40;;;;;;5109023;28;20414;-67
2023/06/21 00:25:56;;;;;;;;;;;23.70;73.80;;;;;;5109199;28;19984;-67
2023/06/21 00:28:21;;;;;;;;;;;23.70;73.60;;;;;;5109621;28;20272;-67
2023/06/21 00:30:47;;;;;;;;;;;23.60;73.80;;;;;;5109461;28;19923;-67
2023/06/21 00:33:12;;;;;;;;;;;23.60;73.60;;;;;;5109488;28;19912;-67
2023/06/21 00:35:38;;;;;;;;;;;23.60;73.80;;;;;;5109191;28;19922;-67
2023/06/21 00:38:05;;;;;;;;;;;23.60;74.00;;;;;;5109254;28;19915;-67
2023/06/21 00:40:31;;;;;;;;;;;23.50;73.90;;;;;;5109010;28;19939;-67
2023/06/21 00:42:56;;;;;;;;;;;23.50;74.00;;;;;;5109164;28;19961;-67
2023/06/21 00:45:22;;;;;;;;;;;23.50;74.40;;;;;;5108918;28;19908;-67
2023/06/21 00:47:49;;;;;;;;;;;23.40;74.10;;;;;;5108928;28;19911;-67
2023/06/21 00:50:15;;;;;;;;;;;23.40;74.20;;;;;;5109128;28;19916;-67
2023/06/21 00:52:43;;;;;;;;;;;23.40;74.50;;;;;;5108796;28;19912;-67
2023/06/21 00:55:09;;;;;;;;;;;23.40;74.20;;;;;;5109060;28;20357;-67
2023/06/21 00:57:35;;;;;;;;;;;23.40;74.50;;;;;;5108646;28;19912;-67
2023/06/21 01:00:00;;;;;;;;;;;23.30;74.70;;;;;;5108914;28;19935;-67
2023/06/21 01:02:26;;;;;;;;;;;23.30;74.70;;;;;;5109124;28;19962;-67
2023/06/21 01:04:52;;;;;;;;;;;23.20;75.00;;;;;;5108969;28;19961;-67
2023/06/21 01:07:43;;;;;;;;;;;23.20;75.20;;;;;;5108650;28;19912;-67
2023/06/21 01:10:24;;;;;;;;;;;23.20;75.30;;;;;;5108672;27;19916;-67
2023/06/21 01:13:04;;;;;;;;;;;23.10;75.60;;;;;;5108915;28;20006;-67
2023/06/21 01:15:33;;;;;;;;;;;23.10;75.50;;;;;;5107918;28;20317;-67
2023/06/21 01:17:59;;;;;;;;;;;23.10;75.10;;;;;;5108369;28;19932;-67
2023/06/21 01:20:28;;;;;;;;;;;23.10;75.20;;;;;;5110194;28;19908;-67
2023/06/21 01:23:12;;;;;;;;;;;23.00;75.40;;;;;;5109861;27;19920;-67
2023/06/21 01:25:41;;;;;;;;;;;23.00;75.80;;;;;;5108001;28;19960;-67
2023/06/21 01:28:19;;;;;;;;;;;23.00;75.80;;;;;;5108626;28;19919;-67
2023/06/21 01:30:45;;;;;;;;;;;23.00;76.40;;;;;;5108334;28;19937;-67
2023/06/21 01:33:11;;;;;;;;;;;22.90;76.00;;;;;;5095314;28;19915;-67
2023/06/21 01:35:36;;;;;;;;;;;22.90;76.30;;;;;;5088024;28;19909;-67
2023/06/21 01:38:02;;;;;;;;;;;22.80;76.30;;;;;;5088191;28;19916;-67
2023/06/21 01:40:27;;;;;;;;;;;22.80;76.30;;;;;;5088199;28;20027;-67
2023/06/21 01:42:53;;;;;;;;;;;22.80;76.30;;;;;;5088017;28;19923;-67
2023/06/21 01:45:21;;;;;;;;;;;22.80;76.10;;;;;;5087996;28;19912;-67
2023/06/21 01:47:47;;;;;;;;;;;22.80;76.30;;;;;;5096199;28;20388;-66
2023/06/21 01:50:14;;;;;;;;;;;22.80;76.20;;;;;;5106389;28;19964;-67
2023/06/21 01:52:40;;;;;;;;;;;22.70;76.30;;;;;;5111191;28;19912;-67
2023/06/21 01:55:06;;;;;;;;;;;22.70;76.50;;;;;;5108541;28;19919;-67
2023/06/21 01:57:35;;;;;;;;;;;22.70;76.70;;;;;;5108439;28;19964;-67
2023/06/21 02:00:07;;;;;;;;;;;22.70;76.80;;;;;;5108594;28;19915;-67
2023/06/21 02:02:34;;;;;;;;;;;22.70;76.40;;;;;;5107111;28;20330;-67
2023/06/21 02:04:59;;;;;;;;;;;22.60;76.10;;;;;;5108521;28;19912;-67
2023/06/21 02:07:25;;;;;;;;;;;22.60;75.90;;;;;;5108232;28;20031;-67
2023/06/21 02:09:51;;;;;;;;;;;22.60;76.30;;;;;;5108291;28;19911;-67
2023/06/21 02:12:16;;;;;;;;;;;22.60;76.50;;;;;;5108458;28;19934;-67
2023/06/21 02:14:42;;;;;;;;;;;22.50;76.50;;;;;;5108090;28;19999;-67
2023/06/21 02:17:08;;;;;;;;;;;22.50;76.60;;;;;;5107991;28;19916;-67
2023/06/21 02:19:34;;;;;;;;;;;22.50;76.60;;;;;;5108383;28;19912;-67
2023/06/21 02:21:59;;;;;;;;;;;22.40;76.60;;;;;;5107181;28;20539;-67
2023/06/21 02:24:25;;;;;;;;;;;22.40;76.80;;;;;;5108020;28;20003;-67
2023/06/21 02:26:50;;;;;;;;;;;22.40;76.70;;;;;;5108065;28;19919;-67
2023/06/21 02:29:16;;;;;;;;;;;22.40;76.70;;;;;;5108025;28;20011;-67
2023/06/21 02:31:41;;;;;;;;;;;22.40;76.80;;;;;;5109712;28;20372;-67
2023/06/21 02:34:07;;;;;;;;;;;22.30;76.80;;;;;;5112097;28;19911;-67
2023/06/21 02:36:32;;;;;;;;;;;22.30;76.90;;;;;;5111972;28;19985;-67
2023/06/21 02:38:58;;;;;;;;;;;22.30;77.50;;;;;;5110469;28;20666;-67
2023/06/21 02:41:23;;;;;;;;;;;22.30;77.30;;;;;;5112062;28;19912;-66
2023/06/21 02:43:49;;;;;;;;;;;22.30;77.20;;;;;;5111568;28;20357;-66
2023/06/21 02:46:14;;;;;;;;;;;22.20;77.80;;;;;;5111427;28;19916;-66
2023/06/21 02:48:40;;;;;;;;;;;22.20;77.70;;;;;;5111624;28;20326;-67
2023/06/21 02:51:05;;;;;;;;;;;22.20;77.50;;;;;;5111434;28;19911;-67
2023/06/21 02:53:31;;;;;;;;;;;22.20;77.60;;;;;;5111688;28;20340;-67
2023/06/21 02:55:56;;;;;;;;;;;22.20;77.80;;;;;;5111348;28;19911;-67
2023/06/21 02:58:22;;;;;;;;;;;22.20;77.90;;;;;;5111675;28;19927;-66
2023/06/21 03:00:47;;;;;;;;;;;22.10;77.90;;;;;;5111414;28;20628;-67
2023/06/21 03:03:13;;;;;;;;;;;22.10;78.00;;;;;;5109962;28;19920;-67
2023/06/21 03:05:38;;;;;;;;;;;22.10;78.30;;;;;;5111034;28;19912;-67
2023/06/21 03:08:04;;;;;;;;;;;22.00;78.20;;;;;;5111368;28;19916;-67
2023/06/21 03:10:32;;;;;;;;;;;22.10;78.40;;;;;;5111567;27;20386;-66
2023/06/21 03:12:58;;;;;;;;;;;22.00;78.10;;;;;;5111456;28;20378;-67
2023/06/21 03:15:24;;;;;;;;;;;22.00;78.40;;;;;;5110562;27;19915;-67
2023/06/21 03:17:49;;;;;;;;;;;22.00;78.40;;;;;;5111105;28;19912;-66
2023/06/21 03:20:15;;;;;;;;;;;21.90;78.20;;;;;;5111080;27;19919;-66
2023/06/21 03:22:41;;;;;;;;;;;21.90;78.30;;;;;;5105787;27;20335;-66
2023/06/21 03:25:11;;;;;;;;;;;22.00;78.50;;;;;;5110840;28;19908;-66
2023/06/21 03:27:36;;;;;;;;;;;21.90;78.70;;;;;;5111242;28;20301;-66
2023/06/21 03:30:02;;;;;;;;;;;21.90;78.90;;;;;;5111065;28;19907;-66
2023/06/21 03:32:28;;;;;;;;;;;21.90;79.00;;;;;;5111045;28;20321;-66
2023/06/21 03:34:53;;;;;;;;;;;21.80;78.80;;;;;;5110853;28;20056;-66
2023/06/21 03:37:19;;;;;;;;;;;21.80;78.70;;;;;;5110539;28;19912;-66
2023/06/21 03:39:45;;;;;;;;;;;21.90;78.80;;;;;;5110633;28;20238;-67
2023/06/21 03:42:10;;;;;;;;;;;21.80;78.80;;;;;;5109308;28;19947;-66
2023/06/21 03:44:36;;;;;;;;;;;21.80;79.10;;;;;;5111470;27;19912;-66
2023/06/21 03:47:02;;;;;;;;;;;21.80;79.00;;;;;;5130022;27;19914;-66
2023/06/21 03:49:28;;;;;;;;;;;21.80;79.30;;;;;;5131232;27;19911;-66
2023/06/21 03:51:53;;;;;;;;;;;21.80;79.10;;;;;;5118235;27;19942;-67
2023/06/21 03:54:18;;;;;;;;;;;21.70;79.00;;;;;;5110288;28;20040;-66
2023/06/21 03:56:44;;;;;;;;;;;21.70;79.00;;;;;;5110235;28;19911;-66
2023/06/21 03:59:10;;;;;;;;;;;21.70;79.10;;;;;;5110450;27;20391;-66
2023/06/21 04:01:35;;;;;;;;;;;21.70;79.00;;;;;;5108867;28;19911;-66
2023/06/21 04:04:01;;;;;;;;;;;21.70;79.10;;;;;;5108787;28;20002;-67
2023/06/21 04:06:26;;;;;;;;;;;21.70;79.10;;;;;;5108719;28;19937;-67
2023/06/21 04:08:52;;;;;;;;;;;21.60;79.30;;;;;;5110192;28;19995;-67
2023/06/21 04:11:17;;;;;;;;;;;21.60;79.40;;;;;;5110174;28;20270;-67
2023/06/21 04:13:43;;;;;;;;;;;21.60;79.50;;;;;;5110032;28;20009;-66
2023/06/21 04:16:09;;;;;;;;;;;21.60;79.50;;;;;;5109789;28;19919;-66
2023/06/21 04:18:34;;;;;;;;;;;21.60;79.70;;;;;;5108504;28;19908;-66
2023/06/21 04:21:00;;;;;;;;;;;21.60;79.60;;;;;;5113778;27;20304;-66
2023/06/21 04:23:26;;;;;;;;;;;21.60;79.50;;;;;;5109118;28;19923;-66
2023/06/21 04:25:52;;;;;;;;;;;21.60;79.20;;;;;;5109591;28;20246;-66
2023/06/21 04:28:17;;;;;;;;;;;21.60;79.20;;;;;;5109937;28;20288;-67
2023/06/21 04:30:43;;;;;;;;;;;21.60;79.20;;;;;;5108370;28;19916;-66
2023/06/21 04:33:08;;;;;;;;;;;21.60;79.30;;;;;;5109575;28;19999;-67
2023/06/21 04:35:34;;;;;;;;;;;21.60;79.40;;;;;;5109435;28;19958;-67
2023/06/21 04:38:00;;;;;;;;;;;21.50;79.30;;;;;;5109655;28;19915;-66
2023/06/21 04:40:25;;;;;;;;;;;21.50;79.10;;;;;;5109640;28;19915;-66
2023/06/21 04:42:54;;;;;;;;;;;21.50;79.50;;;;;;5109624;28;19907;-66
2023/06/21 04:45:20;;;;;;;;;;;21.50;79.30;;;;;;5109330;28;19908;-67
2023/06/21 04:47:49;;;;;;;;;;;21.50;79.20;;;;;;5109541;28;20261;-66
2023/06/21 04:50:15;;;;;;;;;;;21.50;78.30;;;;;;5109499;28;19957;-66
2023/06/21 04:52:41;;;;;;;;;;;21.50;78.50;;;;;;5108579;28;20349;-66
2023/06/21 04:55:06;;;;;;;;;;;21.50;78.50;;;;;;5108893;28;19915;-66
2023/06/21 04:57:32;;;;;;;;;;;21.50;78.30;;;;;;5109327;28;19914;-66
2023/06/21 04:59:58;;;;;;;;;;;21.50;78.40;;;;;;5109463;28;19995;-66
2023/06/21 05:02:24;;;;;;;;;;;21.50;78.40;;;;;;5109554;28;19918;-66
2023/06/21 05:04:50;;;;;;;;;;;21.50;78.50;;;;;;5108690;28;19923;-66
2023/06/21 05:07:15;;;;;;;;;;;21.50;78.50;;;;;;5108918;28;19915;-67
2023/06/21 05:09:41;;;;;;;;;;;21.50;78.40;;;;;;5108887;28;19912;-66
2023/06/21 05:12:08;;;;;;;;;;;21.50;78.60;;;;;;5109171;28;19918;-66
2023/06/21 05:14:34;;;;;;;;;;;21.50;78.80;;;;;;5108847;28;19915;-66
2023/06/21 05:16:59;;;;;;;;;;;21.50;78.70;;;;;;5108831;28;20686;-66
2023/06/21 05:19:25;;;;;;;;;;;21.50;78.70;;;;;;5108993;28;19915;-66
2023/06/21 05:21:50;;;;;;;;;;;21.50;78.30;;;;;;5112390;28;19918;-66
2023/06/21 05:24:16;;;;;;;;;;;21.50;78.80;;;;;;5108458;28;19920;-66
2023/06/21 05:26:44;;;;;;;;;;;21.50;78.90;;;;;;5108816;28;19911;-67
2023/06/21 05:29:12;;;;;;;;;;;21.50;78.70;;;;;;5108818;28;20322;-66
2023/06/21 05:31:42;;;;;;;;;;;21.50;78.60;;;;;;5107490;28;20565;-66
2023/06/21 05:34:08;;;;;;;;;;;21.50;78.50;;;;;;5108912;28;19912;-67
2023/06/21 05:36:33;;;;;;;;;;;21.50;78.60;;;;;;5107168;28;19918;-66
2023/06/21 05:38:59;;;;;;;;;;;21.50;78.50;;;;;;5108671;28;19916;-66
2023/06/21 05:41:24;;;;;;;;;;;21.50;78.50;;;;;;5108941;28;19915;-66
2023/06/21 05:43:50;;;;;;;;;;;21.50;78.30;;;;;;5108823;28;19915;-66
2023/06/21 05:46:15;;;;;;;;;;;21.50;78.30;;;;;;5108292;28;20407;-66
2023/06/21 05:48:41;;;;;;;;;;;21.50;78.30;;;;;;5110857;28;19918;-67
2023/06/21 05:51:06;;;;;;;;;;;21.50;78.30;;;;;;5125808;27;19912;-67
2023/06/21 05:53:32;;;;;;;;;;;21.50;78.50;;;;;;5108023;28;20372;-67
2023/06/21 05:55:58;;;;;;;;;;;21.60;78.50;;;;;;5106734;28;19915;-67
2023/06/21 05:58:24;;;;;;;;;;;21.60;78.30;;;;;;5108319;28;19992;-67
2023/06/21 06:00:49;;;;;;;;;;;21.60;78.40;;;;;;5107089;28;19915;-67
2023/06/21 06:03:15;;;;;;;;;;;21.60;78.30;;;;;;5108594;28;19942;-67
2023/06/21 06:05:41;;;;;;;;;;;21.60;78.30;;;;;;5109447;28;20573;-67
2023/06/21 06:08:06;;;;;;;;;;;21.60;78.20;;;;;;5112419;28;19915;-67
2023/06/21 06:10:32;;;;;;;;;;;21.60;78.20;;;;;;5112489;27;19912;-67
2023/06/21 06:12:57;;;;;;;;;;;21.60;78.20;;;;;;5112790;28;19923;-67
2023/06/21 06:15:23;;;;;;;;;;;21.60;78.10;;;;;;5112407;28;19907;-67
2023/06/21 06:17:48;;;;;;;;;;;21.60;78.30;;;;;;5112407;28;19915;-67
2023/06/21 06:20:14;;;;;;;;;;;21.60;78.30;;;;;;5112583;28;20238;-67
2023/06/21 06:22:39;;;;;;;;;;;21.60;78.10;;;;;;5111146;27;19958;-67
2023/06/21 06:25:05;;;;;;;;;;;21.70;78.00;;;;;;5111862;28;19951;-67
2023/06/21 06:27:31;;;;;;;;;;;21.70;78.10;;;;;;5110460;28;19919;-67
2023/06/21 06:29:57;;;;;;;;;;;21.70;77.80;;;;;;5112086;28;19911;-69
2023/06/21 06:32:23;;;;;;;;;;;21.70;77.80;;;;;;5112185;28;19911;-69
2023/06/21 06:34:49;;;;;;;;;;;21.70;78.20;;;;;;5112490;28;19912;-70
2023/06/21 06:37:14;;;;;;;;;;;21.70;78.00;;;;;;5111914;28;19923;-69
2023/06/21 06:39:40;;;;;;;;;;;21.70;78.20;;;;;;5112005;28;19935;-69
2023/06/21 06:42:06;;;;;;;;;;;21.80;78.10;;;;;;5112007;28;19912;-69
2023/06/21 06:44:32;;;;;;;;;;;21.80;77.90;;;;;;5111597;28;19915;-69
2023/06/21 06:46:57;;;;;;;;;;;21.80;77.80;;;;;;5111716;28;20446;-70
2023/06/21 06:49:23;;;;;;;;;;;21.80;78.40;;;;;;5111815;27;20345;-70
2023/06/21 06:51:48;;;;;;;;;;;21.90;78.00;;;;;;5114663;27;19977;-70
2023/06/21 06:54:14;;;;;;;;;;;21.90;78.60;;;;;;5111399;28;19915;-70
2023/06/21 06:56:39;;;;;;;;;;;21.90;78.00;;;;;;5111389;28;19927;-69
2023/06/21 06:59:05;;;;;;;;;;;22.00;78.30;;;;;;5111554;27;19919;-70
2023/06/21 07:01:30;;;;;;;;;;;22.00;77.70;;;;;;5111404;28;19951;-70
2023/06/21 07:03:56;;;;;;;;;;;22.10;78.10;;;;;;5111538;28;19915;-70
2023/06/21 07:06:22;;;;;;;;;;;22.10;78.10;;;;;;5111097;28;19908;-69
2023/06/21 07:08:47;;;;;;;;;;;22.10;77.80;;;;;;5111330;28;19914;-70
2023/06/21 07:11:13;;;;;;;;;;;22.20;77.70;;;;;;5111022;28;19923;-70
2023/06/21 07:13:39;;;;;;;;;;;22.20;78.00;;;;;;5110892;28;20547;-70
2023/06/21 07:16:05;;;;;;;;;;;22.20;77.70;;;;;;5110278;28;19994;-70
2023/06/21 07:18:30;;;;;;;;;;;22.20;77.70;;;;;;5111237;28;20037;-70
2023/06/21 07:20:56;;;;;;;;;;;22.20;77.70;;;;;;5113601;27;19907;-70
2023/06/21 07:23:21;;;;;;;;;;;22.20;77.50;;;;;;5105792;28;19959;-70
2023/06/21 07:25:47;;;;;;;;;;;22.20;78.00;;;;;;5110711;28;20098;-70
2023/06/21 07:28:12;;;;;;;;;;;22.30;78.20;;;;;;5110671;28;19912;-69
2023/06/21 07:30:39;;;;;;;;;;;22.30;77.60;;;;;;5110833;28;19916;-70
2023/06/21 07:33:06;;;;;;;;;;;22.30;78.00;;;;;;5110912;28;19942;-70
2023/06/21 07:35:31;;;;;;;;;;;22.30;77.50;;;;;;5110599;28;19908;-70
2023/06/21 07:37:57;;;;;;;;;;;22.40;77.30;;;;;;5110816;28;19919;-70
2023/06/21 07:40:23;;;;;;;;;;;22.40;77.30;;;;;;5110839;28;20007;-70
2023/06/21 07:42:49;;;;;;;;;;;22.40;77.30;;;;;;5110251;28;19915;-70
2023/06/21 07:45:15;;;;;;;;;;;22.50;78.30;;;;;;5109369;28;20014;-70
2023/06/21 07:47:41;;;;;;;;;;;22.50;77.40;;;;;;5110596;28;20003;-70
2023/06/21 07:50:07;;;;;;;;;;;22.60;78.30;;;;;;5110584;28;20344;-71
2023/06/21 07:52:32;;;;;;;;;;;22.60;78.80;;;;;;5120327;27;19919;-70
2023/06/21 07:54:58;;;;;;;;;;;22.60;78.10;;;;;;5110415;28;19916;-71
2023/06/21 07:57:23;;;;;;;;;;;22.60;77.20;;;;;;5115226;27;19918;-70
2023/06/21 07:59:49;;;;;;;;;;;22.60;77.30;;;;;;5129491;27;19963;-70
2023/06/21 08:02:17;;;;;;;;;;;22.60;77.10;;;;;;5101948;27;19917;-70
2023/06/21 08:04:46;;;;;;;;;;;22.60;77.10;;;;;;5094412;28;19922;-70
2023/06/21 08:07:12;;;;;;;;;;;22.70;76.80;;;;;;5110277;28;19912;-70
2023/06/21 08:09:38;;;;;;;;;;;22.70;76.90;;;;;;5110282;28;19911;-70
2023/06/21 08:12:04;;;;;;;;;;;22.70;77.20;;;;;;5110305;28;19919;-70
2023/06/21 08:14:29;;;;;;;;;;;22.80;77.10;;;;;;5110196;28;19918;-70
2023/06/21 08:16:55;;;;;;;;;;;22.80;77.90;;;;;;5109949;28;20056;-70
2023/06/21 08:19:20;;;;;;;;;;;23.00;77.10;;;;;;5109968;28;20529;-70
2023/06/21 08:21:46;;;;;;;;;;;23.00;76.60;;;;;;5113652;27;19919;-70
2023/06/21 08:24:11;;;;;;;;;;;23.10;76.80;;;;;;5107863;28;19939;-70
2023/06/21 08:26:37;;;;;;;;;;;23.10;77.10;;;;;;5109209;28;19908;-70
2023/06/21 08:29:02;;;;;;;;;;;23.10;76.50;;;;;;5109053;28;19908;-70
2023/06/21 08:31:28;;;;;;;;;;;23.10;77.50;;;;;;5109698;28;19912;-70
2023/06/21 08:33:53;;;;;;;;;;;23.10;76.60;;;;;;5109711;28;20038;-70
2023/06/21 08:36:19;;;;;;;;;;;23.10;76.60;;;;;;5109571;28;19912;-70
2023/06/21 08:38:45;;;;;;;;;;;23.20;76.70;;;;;;5109651;28;19992;-70
2023/06/21 08:41:11;;;;;;;;;;;23.20;76.80;;;;;;5109667;28;19919;-70
2023/06/21 08:43:37;;;;;;;;;;;23.20;76.30;;;;;;5109626;27;19911;-70
2023/06/21 08:46:05;;;;;;;;;;;23.30;76.60;;;;;;5109195;28;19983;-70
2023/06/21 08:48:31;;;;;;;;;;;23.30;76.10;;;;;;5109466;28;19912;-70
2023/06/21 08:50:57;;;;;;;;;;;23.30;76.60;;;;;;5113414;27;20399;-70
2023/06/21 08:53:27;;;;;;;;;;;23.30;76.40;;;;;;5108287;28;19912;-70
2023/06/21 08:55:54;;;;;;;;;;;23.30;76.40;;;;;;5108975;28;20384;-70
2023/06/21 08:58:21;;;;;;;;;;;23.40;77.00;;;;;;5109387;28;19988;-70
2023/06/21 09:00:50;;;;;;;;;;;23.40;76.40;;;;;;5109331;28;19911;-70
2023/06/21 09:03:23;;;;;;;;;;;23.50;76.80;;;;;;5108851;28;19919;-71
2023/06/21 09:05:54;;;;;;;;;;;23.50;77.20;;;;;;5108624;28;19953;-70
2023/06/21 09:08:20;;;;;;;;;;;23.60;76.60;;;;;;5109114;28;20485;-70
2023/06/21 09:10:46;;;;;;;;;;;23.60;76.00;;;;;;5109045;28;19925;-71
2023/06/21 09:13:12;;;;;;;;;;;23.60;76.60;;;;;;5109356;28;20030;-70
2023/06/21 09:15:38;;;;;;;;;;;23.60;75.60;;;;;;5108870;28;20011;-71
2023/06/21 09:18:04;;;;;;;;;;;23.60;76.30;;;;;;5109346;28;19911;-70
2023/06/21 09:20:30;;;;;;;;;;;23.70;76.30;;;;;;5111209;28;19943;-70
2023/06/21 09:22:59;;;;;;;;;;;23.80;75.80;;;;;;5108767;27;20442;-70
2023/06/21 09:25:26;;;;;;;;;;;23.80;75.30;;;;;;5108521;28;19922;-70
2023/06/21 09:27:55;;;;;;;;;;;23.80;75.90;;;;;;5108880;28;20299;-70
2023/06/21 09:30:21;;;;;;;;;;;23.90;75.40;;;;;;5109023;28;20414;-71
2023/06/21 09:32:46;;;;;;;;;;;23.90;75.90;;;;;;5108971;28;19919;-71
2023/06/21 09:35:13;;;;;;;;;;;24.00;75.70;;;;;;5109073;28;19912;-71
2023/06/21 09:37:39;;;;;;;;;;;24.10;75.50;;;;;;5108810;28;19948;-70
2023/06/21 09:40:04;;;;;;;;;;;24.10;75.00;;;;;;5111004;28;19911;-71
2023/06/21 09:42:31;;;;;;;;;;;24.20;75.30;;;;;;5113112;28;19907;-71
2023/06/21 09:44:56;;;;;;;;;;;24.30;75.50;;;;;;5112986;28;19927;-71
2023/06/21 09:47:22;;;;;;;;;;;24.30;74.90;;;;;;5112717;28;19908;-70
2023/06/21 09:49:48;;;;;;;;;;;24.40;75.20;;;;;;5117102;27;19911;-71
2023/06/21 09:52:14;;;;;;;;;;;24.40;74.70;;;;;;5120228;27;19915;-71
2023/06/21 09:54:43;;;;;;;;;;;24.50;74.90;;;;;;5112485;28;19912;-71
2023/06/21 09:57:08;;;;;;;;;;;24.50;74.80;;;;;;5112528;28;20392;-71
2023/06/21 09:59:37;;;;;;;;;;;24.40;74.80;;;;;;5112572;28;19918;-71
2023/06/21 10:02:04;;;;;;;;;;;24.40;74.50;;;;;;5112834;28;19912;-71
2023/06/21 10:04:29;;;;;;;;;;;24.40;75.40;;;;;;5111101;28;19923;-71
2023/06/21 10:06:55;;;;;;;;;;;24.50;75.20;;;;;;5112365;28;19912;-71
2023/06/21 10:09:20;;;;;;;;;;;24.60;74.40;;;;;;5112315;28;19923;-71
2023/06/21 10:11:49;;;;;;;;;;;24.60;75.00;;;;;;5112593;28;20027;-71
2023/06/21 10:14:18;;;;;;;;;;;24.60;74.30;;;;;;5112225;28;19916;-71
2023/06/21 10:16:46;;;;;;;;;;;24.50;74.40;;;;;;5110868;28;19911;-71
2023/06/21 10:19:11;;;;;;;;;;;24.50;74.50;;;;;;5112438;28;19912;-71
2023/06/21 10:21:37;;;;;;;;;;;24.50;74.60;;;;;;5116134;27;19908;-71
2023/06/21 10:24:04;;;;;;;;;;;24.50;74.70;;;;;;5111494;27;19927;-71
2023/06/21 10:26:30;;;;;;;;;;;24.50;74.60;;;;;;5111733;28;19912;-71
2023/06/21 10:28:57;;;;;;;;;;;24.60;74.70;;;;;;5112369;28;19982;-70
2023/06/21 10:31:23;;;;;;;;;;;24.70;75.10;;;;;;5112248;28;19912;-71
2023/06/21 10:33:50;;;;;;;;;;;24.80;74.00;;;;;;5111933;28;19968;-71
2023/06/21 10:36:17;;;;;;;;;;;24.90;73.80;;;;;;5111991;28;20008;-71
2023/06/21 10:38:43;;;;;;;;;;;24.90;74.10;;;;;;5112076;28;19911;-71
2023/06/21 10:41:09;;;;;;;;;;;24.90;74.00;;;;;;5112040;28;20735;-71
2023/06/21 10:43:35;;;;;;;;;;;25.00;73.90;;;;;;5111824;28;19919;-71
2023/06/21 10:46:01;;;;;;;;;;;25.00;73.80;;;;;;5111620;28;20432;-71
2023/06/21 10:48:27;;;;;;;;;;;25.10;73.50;;;;;;5112264;28;19943;-71
2023/06/21 10:50:54;;;;;;;;;;;25.20;73.20;;;;;;5114619;27;20275;-71
2023/06/21 10:53:20;;;;;;;;;;;25.30;73.20;;;;;;5111293;28;20371;-71
2023/06/21 10:55:46;;;;;;;;;;;25.30;73.60;;;;;;5111146;28;19957;-71
2023/06/21 10:58:13;;;;;;;;;;;25.30;73.20;;;;;;5111128;28;19912;-71
2023/06/21 11:00:39;;;;;;;;;;;25.40;73.00;;;;;;5111317;28;19916;-71
2023/06/21 11:03:04;;;;;;;;;;;25.40;73.40;;;;;;5109848;28;19918;-71
2023/06/21 11:05:30;;;;;;;;;;;25.50;73.40;;;;;;5110707;28;20590;-71
2023/06/21 11:08:00;;;;;;;;;;;25.60;73.20;;;;;;5111845;28;19908;-71
2023/06/21 11:10:42;;;;;;;;;;;25.80;72.50;;;;;;5111573;28;20325;-71
2023/06/21 11:13:08;;;;;;;;;;;25.90;72.30;;;;;;5111678;28;19922;-71
2023/06/21 11:15:37;;;;;;;;;;;26.00;72.40;;;;;;5111046;28;19912;-71
2023/06/21 11:18:06;;;;;;;;;;;26.00;71.80;;;;;;5111732;28;19911;-71
2023/06/21 11:20:43;;;;;;;;;;;26.10;72.60;;;;;;5113703;27;20368;-71
2023/06/21 11:23:09;;;;;;;;;;;26.20;71.60;;;;;;5089078;28;19956;-71
2023/06/21 11:25:37;;;;;;;;;;;26.40;71.60;;;;;;5104900;28;20409;-71
2023/06/21 11:28:28;;;;;;;;;;;26.40;71.20;;;;;;5111112;28;19911;-71
2023/06/21 11:30:59;;;;;;;;;;;26.50;71.20;;;;;;5110880;27;20003;-71
2023/06/21 11:33:29;;;;;;;;;;;26.50;71.40;;;;;;5111123;28;20369;-71
2023/06/21 11:36:21;;;;;;;;;;;26.50;71.60;;;;;;5110973;28;19911;-71
2023/06/21 11:38:48;;;;;;;;;;;26.50;71.30;;;;;;5108609;28;19912;-71
2023/06/21 11:41:32;;;;;;;;;;;26.60;71.50;;;;;;5110886;28;20851;-71
2023/06/21 11:43:58;;;;;;;;;;;26.70;71.30;;;;;;5110603;28;19919;-71
2023/06/21 11:46:24;;;;;;;;;;;26.80;70.90;;;;;;5109163;28;19912;-71
2023/06/21 11:48:57;;;;;;;;;;;26.80;71.20;;;;;;5110759;28;19912;-72
2023/06/21 11:51:23;;;;;;;;;;;26.90;71.00;;;;;;5114522;27;19908;-71
2023/06/21 11:53:50;;;;;;;;;;;27.00;71.30;;;;;;5106981;27;20011;-71
2023/06/21 11:56:19;;;;;;;;;;;27.00;71.40;;;;;;5110063;28;19918;-71
2023/06/21 11:58:54;;;;;;;;;;;27.10;71.10;;;;;;5110339;28;19912;-71
2023/06/21 12:01:19;;;;;;;;;;;27.10;70.90;;;;;;5110277;28;20696;-71
2023/06/21 12:03:46;;;;;;;;;;;27.20;70.30;;;;;;5109255;28;19943;-71
2023/06/21 12:06:12;;;;;;;;;;;27.30;70.60;;;;;;5108597;28;19995;-71
2023/06/21 12:08:38;;;;;;;;;;;27.30;70.80;;;;;;5110499;28;20329;-71
2023/06/21 12:11:04;;;;;;;;;;;27.40;70.30;;;;;;5110018;28;19914;-72
2023/06/21 12:13:30;;;;;;;;;;;27.40;70.20;;;;;;5109186;28;20405;-71
2023/06/21 12:15:57;;;;;;;;;;;27.50;70.60;;;;;;5109679;28;19912;-71
2023/06/21 12:18:23;;;;;;;;;;;27.50;70.20;;;;;;5110127;28;20010;-71
2023/06/21 12:20:49;;;;;;;;;;;27.50;69.80;;;;;;5114125;27;19918;-71
2023/06/21 12:23:14;;;;;;;;;;;27.60;69.80;;;;;;5106434;28;20022;-71
2023/06/21 12:25:44;;;;;;;;;;;27.50;69.50;;;;;;5104657;28;19908;-71
2023/06/21 12:28:12;;;;;;;;;;;27.60;69.80;;;;;;5109913;28;19964;-71
2023/06/21 12:30:47;;;;;;;;;;;27.60;70.00;;;;;;5109706;28;19908;-71
2023/06/21 12:33:13;;;;;;;;;;;27.70;69.90;;;;;;5109925;28;19912;-71
2023/06/21 12:35:38;;;;;;;;;;;27.70;69.70;;;;;;5109469;28;19922;-71
2023/06/21 12:38:17;;;;;;;;;;;27.80;69.50;;;;;;5123469;27;19915;-71
2023/06/21 12:40:59;;;;;;;;;;;27.80;70.60;;;;;;5130262;27;19912;-71
2023/06/21 12:43:36;;;;;;;;;;;27.90;69.70;;;;;;5130360;27;20009;-71
2023/06/21 12:46:05;;;;;;;;;;;28.00;69.00;;;;;;5129528;27;20307;-71
2023/06/21 12:48:31;;;;;;;;;;;28.10;68.50;;;;;;5130322;27;19915;-71
2023/06/21 12:50:57;;;;;;;;;;;28.20;69.10;;;;;;5128010;27;19915;-71
2023/06/21 12:53:24;;;;;;;;;;;28.20;68.20;;;;;;5108448;28;20388;-71
2023/06/21 12:55:50;;;;;;;;;;;28.30;68.10;;;;;;5105275;28;19922;-71
2023/06/21 12:58:16;;;;;;;;;;;28.40;67.80;;;;;;5108990;28;19912;-71
2023/06/21 13:00:41;;;;;;;;;;;28.50;68.60;;;;;;5109118;28;19908;-72
2023/06/21 13:03:07;;;;;;;;;;;28.50;68.00;;;;;;5109394;28;19915;-72
2023/06/21 13:05:33;;;;;;;;;;;28.60;67.80;;;;;;5108668;28;20437;-71
2023/06/21 13:07:58;;;;;;;;;;;28.60;67.60;;;;;;5107841;28;19973;-71
2023/06/21 13:10:23;;;;;;;;;;;28.60;67.50;;;;;;5109059;28;19935;-71
2023/06/21 13:12:49;;;;;;;;;;;28.60;67.50;;;;;;5109275;28;19943;-71
2023/06/21 13:15:14;;;;;;;;;;;28.60;67.80;;;;;;5108591;28;19930;-71
2023/06/21 13:17:40;;;;;;;;;;;28.70;68.00;;;;;;5108915;28;19911;-71
2023/06/21 13:20:06;;;;;;;;;;;28.70;67.80;;;;;;5109220;28;19919;-71
2023/06/21 13:22:31;;;;;;;;;;;28.80;67.30;;;;;;5112794;28;19927;-71
2023/06/21 13:24:58;;;;;;;;;;;28.80;67.50;;;;;;5099491;28;20443;-71
2023/06/21 13:27:24;;;;;;;;;;;28.90;67.10;;;;;;5108773;28;19951;-71
2023/06/21 13:29:49;;;;;;;;;;;28.90;66.80;;;;;;5108818;28;20367;-71
2023/06/21 13:32:15;;;;;;;;;;;29.00;66.80;;;;;;5108990;28;19912;-71
2023/06/21 13:34:40;;;;;;;;;;;29.00;66.80;;;;;;5108889;28;20318;-71
2023/06/21 13:37:06;;;;;;;;;;;29.00;67.00;;;;;;5108907;28;19938;-71
2023/06/21 13:39:33;;;;;;;;;;;29.00;67.00;;;;;;5107539;28;19911;-71
2023/06/21 13:41:59;;;;;;;;;;;28.90;67.20;;;;;;5109185;28;19915;-71
2023/06/21 13:44:24;;;;;;;;;;;28.90;67.40;;;;;;5108672;28;19919;-71
2023/06/21 13:46:50;;;;;;;;;;;28.80;67.50;;;;;;5108742;28;20265;-71
2023/06/21 13:49:15;;;;;;;;;;;28.90;66.80;;;;;;5108864;28;20044;-71
2023/06/21 13:51:41;;;;;;;;;;;28.90;67.00;;;;;;5112751;28;19965;-71
2023/06/21 13:54:06;;;;;;;;;;;28.90;67.20;;;;;;5102219;28;20057;-71
2023/06/21 13:56:33;;;;;;;;;;;28.80;67.40;;;;;;5116120;28;19965;-71
2023/06/21 13:58:59;;;;;;;;;;;28.80;66.90;;;;;;5108821;28;19915;-71
2023/06/21 14:01:24;;;;;;;;;;;28.90;67.00;;;;;;5107500;28;19945;-71
2023/06/21 14:03:50;;;;;;;;;;;28.80;66.80;;;;;;5108840;28;19961;-71
2023/06/21 14:06:15;;;;;;;;;;;28.80;66.40;;;;;;5106985;28;19951;-71
2023/06/21 14:08:40;;;;;;;;;;;28.80;67.00;;;;;;5108818;28;19956;-71
2023/06/21 14:11:06;;;;;;;;;;;28.70;67.20;;;;;;5108459;28;19965;-71
2023/06/21 14:13:31;;;;;;;;;;;28.60;66.70;;;;;;5108866;28;19915;-71